createdAt,value
2022-10-05T00:02:15.503Z,15.30
2022-10-05T00:07:21.052Z,14.39
2022-10-05T00:12:26.355Z,13.72
2022-10-05T00:17:30.678Z,13.18
2022-10-05T00:22:36.006Z,12.75
2022-10-05T00:27:39.047Z,12.42
2022-10-05T00:32:42.497Z,13.28
2022-10-05T00:37:47.232Z,16.17
2022-10-05T00:43:06.350Z,16.83
2022-10-05T00:48:17.489Z,15.27
2022-10-05T00:53:43.163Z,14.36
2022-10-05T00:59:12.066Z,13.73
2022-10-05T01:04:28.556Z,13.23
2022-10-05T01:10:16.102Z,12.80
2022-10-05T01:15:22.057Z,12.46
2022-10-05T01:20:34.024Z,13.38
2022-10-05T01:25:39.634Z,16.29
2022-10-05T01:31:01.667Z,16.45
2022-10-05T01:36:15.380Z,14.87
2022-10-05T01:41:39.446Z,13.99
2022-10-05T01:46:57.234Z,13.34
2022-10-05T01:52:39.307Z,12.77
2022-10-05T01:58:07.934Z,12.35
2022-10-05T02:03:18.193Z,12.02
2022-10-05T02:08:24.677Z,12.88
2022-10-05T02:13:52.826Z,15.74
2022-10-05T02:19:08.699Z,15.43
2022-10-05T02:24:20.652Z,14.09
2022-10-05T02:29:29.894Z,13.31
2022-10-05T02:34:41.335Z,12.71
2022-10-05T02:39:59.687Z,12.24
2022-10-05T02:45:23.214Z,11.87
2022-10-05T02:51:07.603Z,11.55
2022-10-05T02:56:49.363Z,12.72
2022-10-05T03:01:59.615Z,15.66
2022-10-05T03:07:08.932Z,14.91
2022-10-05T03:12:39.830Z,13.68
2022-10-05T03:17:59.980Z,12.94
2022-10-05T03:23:08.746Z,12.37
2022-10-05T03:28:15.187Z,11.94
2022-10-05T03:33:34.639Z,11.59
2022-10-05T03:38:57.894Z,11.30
2022-10-05T03:44:22.108Z,12.22
2022-10-05T03:49:43.176Z,15.22
2022-10-05T03:54:50.589Z,15.04
2022-10-05T04:00:01.114Z,13.66
2022-10-05T04:05:12.542Z,12.86
2022-10-05T04:10:26.249Z,12.28
2022-10-05T04:15:40.535Z,11.82
2022-10-05T04:20:47.242Z,11.43
2022-10-05T04:25:59.636Z,11.12
2022-10-05T04:31:06.436Z,12.05
2022-10-05T04:36:24.419Z,14.94
2022-10-05T04:42:03.176Z,15.51
2022-10-05T04:47:15.529Z,13.83
2022-10-05T04:52:31.511Z,12.98
2022-10-05T04:57:53.228Z,12.39
2022-10-05T05:03:17.517Z,11.89
2022-10-05T05:08:32.517Z,11.47
2022-10-05T05:13:53.464Z,11.17
2022-10-05T05:19:18.157Z,12.16
2022-10-05T05:24:39.370Z,15.19
2022-10-05T05:29:48.896Z,15.66
2022-10-05T05:35:13.579Z,14.11
2022-10-05T05:40:31.136Z,13.17
2022-10-05T05:45:41.591Z,12.55
2022-10-05T05:50:53.904Z,12.09
2022-10-05T05:56:21.193Z,11.77
2022-10-05T06:01:37.691Z,11.50
2022-10-05T06:06:50.262Z,12.58
2022-10-05T06:11:57.191Z,15.56
2022-10-05T06:17:16.174Z,16.26
2022-10-05T06:22:41.030Z,14.77
2022-10-05T06:28:03.786Z,13.87
2022-10-05T06:33:20.591Z,13.28
2022-10-05T06:38:32.189Z,12.84
2022-10-05T06:43:46.459Z,12.50
2022-10-05T06:49:38.615Z,12.25
2022-10-05T06:54:47.616Z,13.49
2022-10-05T07:00:07.688Z,16.35
2022-10-05T07:05:40.864Z,16.23
2022-10-05T07:11:23.408Z,14.98
2022-10-05T07:16:45.665Z,14.39
2022-10-05T07:27:21.395Z,13.88
2022-10-05T07:32:34.022Z,13.74
2022-10-05T07:37:54.839Z,14.14
2022-10-05T07:43:07.827Z,17.40
2022-10-05T07:48:16.470Z,18.67
2022-10-05T07:53:25.687Z,17.65
2022-10-05T07:58:34.784Z,16.93
2022-10-05T08:03:38.605Z,16.37
2022-10-05T08:09:22.596Z,15.96
2022-10-05T08:14:35.072Z,15.64
2022-10-05T08:19:50.764Z,15.43
2022-10-05T08:25:04.812Z,15.27
2022-10-05T08:30:13.316Z,15.19
2022-10-05T08:35:39.515Z,15.17
2022-10-05T08:41:00.903Z,15.16
2022-10-05T08:46:20.013Z,15.22
2022-10-05T08:51:28.806Z,15.33
2022-10-05T08:56:34.440Z,15.45
2022-10-05T09:01:37.368Z,15.55
2022-10-05T09:06:57.407Z,15.66
2022-10-05T09:12:33.870Z,15.74
2022-10-05T09:17:48.952Z,15.85
2022-10-05T09:22:59.172Z,15.97
2022-10-05T09:28:12.015Z,16.07
2022-10-05T09:33:34.853Z,16.16
2022-10-05T09:38:56.127Z,16.27
2022-10-05T09:44:56.311Z,16.39
2022-10-05T09:50:17.582Z,16.52
2022-10-05T09:55:41.752Z,16.60
2022-10-05T10:01:09.231Z,16.69
2022-10-05T10:06:51.561Z,16.83
2022-10-05T10:12:31.547Z,16.96
2022-10-05T10:17:52.911Z,17.07
2022-10-05T10:23:10.115Z,17.16
2022-10-05T10:28:35.480Z,17.28
2022-10-05T10:34:06.054Z,17.39
2022-10-05T10:39:27.484Z,17.48
2022-10-05T10:45:23.228Z,17.56
2022-10-05T10:50:50.243Z,17.63
2022-10-05T10:56:14.538Z,17.74
2022-10-05T11:01:39.612Z,18.03
2022-10-05T11:07:13.682Z,18.30
2022-10-05T11:12:32.202Z,18.52
2022-10-05T11:17:58.774Z,18.70
2022-10-05T11:23:47.576Z,18.79
2022-10-05T11:29:17.408Z,18.85
2022-10-05T11:34:43.283Z,18.89
2022-10-05T11:40:12.361Z,18.94
2022-10-05T11:45:24.467Z,18.97
2022-10-05T11:51:08.931Z,18.98
2022-10-05T11:56:43.464Z,18.95
2022-10-05T12:01:49.147Z,18.94
2022-10-05T12:07:25.676Z,18.95
2022-10-05T12:12:36.867Z,19.06
2022-10-05T12:17:51.342Z,19.04
2022-10-05T12:23:33.640Z,19.01
2022-10-05T12:28:45.111Z,18.99
2022-10-05T12:34:02.038Z,18.99
2022-10-05T12:39:13.498Z,18.98
2022-10-05T12:44:21.838Z,19.01
2022-10-05T12:49:39.064Z,19.07
2022-10-05T12:55:11.005Z,19.13
2022-10-05T13:00:22.910Z,19.24
2022-10-05T13:05:52.935Z,19.35
2022-10-05T13:11:17.027Z,19.43
2022-10-05T13:16:38.749Z,19.55
2022-10-05T13:22:17.736Z,19.70
2022-10-05T13:27:27.764Z,19.78
2022-10-05T13:32:41.814Z,19.76
2022-10-05T13:37:53.625Z,19.72
2022-10-05T13:43:18.210Z,19.64
2022-10-05T13:48:42.261Z,19.57
2022-10-05T13:53:59.923Z,19.53
2022-10-05T13:59:05.656Z,19.52
2022-10-05T14:04:22.222Z,19.51
2022-10-05T14:09:31.637Z,19.48
2022-10-05T14:14:50.684Z,19.46
2022-10-05T14:19:57.167Z,19.42
2022-10-05T14:25:02.733Z,19.39
2022-10-05T14:30:08.632Z,19.38
2022-10-05T14:35:16.076Z,19.39
2022-10-05T14:40:27.034Z,19.38
2022-10-05T14:45:30.377Z,19.38
2022-10-05T14:50:33.409Z,19.36
2022-10-05T14:55:56.694Z,19.33
2022-10-05T15:01:07.056Z,19.28
2022-10-05T15:06:21.250Z,19.27
2022-10-05T15:11:46.422Z,19.25
2022-10-05T15:16:57.651Z,19.22
2022-10-05T15:22:32.891Z,19.18
2022-10-05T15:27:42.111Z,19.17
2022-10-05T15:32:55.554Z,19.12
2022-10-05T15:38:25.784Z,19.10
2022-10-05T15:43:47.571Z,19.05
2022-10-05T15:49:14.725Z,19.02
2022-10-05T15:54:44.505Z,18.99
2022-10-05T15:59:54.071Z,18.89
2022-10-05T16:05:12.876Z,18.76
2022-10-05T16:10:21.505Z,18.60
2022-10-05T16:15:36.280Z,18.47
2022-10-05T16:21:20.749Z,18.38
2022-10-05T16:26:38.694Z,18.30
2022-10-05T16:31:49.165Z,18.21
2022-10-05T16:37:09.436Z,18.14
2022-10-05T16:42:30.709Z,18.11
2022-10-05T16:47:51.832Z,18.09
2022-10-05T16:53:04.895Z,18.08
2022-10-05T16:58:38.441Z,18.01
2022-10-05T17:03:58.162Z,17.93
2022-10-05T17:09:27.092Z,17.81
2022-10-05T17:14:54.550Z,17.66
2022-10-05T17:20:23.808Z,17.51
2022-10-05T17:25:44.850Z,17.39
2022-10-05T17:30:54.120Z,17.28
2022-10-05T17:36:03.485Z,17.19
2022-10-05T17:41:12.201Z,17.09
2022-10-05T17:46:39.369Z,16.98
2022-10-05T17:52:00.766Z,18.06
2022-10-05T17:57:14.960Z,20.81
2022-10-05T18:02:39.535Z,20.84
2022-10-05T18:07:52.403Z,19.51
2022-10-05T18:13:00.855Z,18.81
2022-10-05T18:18:33.047Z,18.29
2022-10-05T18:23:37.017Z,17.82
2022-10-05T18:28:49.220Z,17.46
2022-10-05T18:34:10.009Z,17.25
2022-10-05T18:39:35.530Z,17.13
2022-10-05T18:44:50.007Z,17.04
2022-10-05T18:50:17.510Z,16.94
2022-10-05T18:55:32.757Z,16.80
2022-10-05T19:00:59.043Z,17.72
2022-10-05T19:06:24.677Z,20.58
2022-10-05T19:11:50.172Z,20.59
2022-10-05T19:16:53.318Z,19.37
2022-10-05T19:22:01.163Z,18.76
2022-10-05T19:27:16.743Z,18.29
2022-10-05T19:32:52.945Z,17.78
2022-10-05T19:43:31.946Z,16.86
2022-10-05T19:48:44.673Z,16.49
2022-10-05T19:53:50.149Z,16.21
2022-10-05T19:58:57.681Z,17.02
2022-10-05T20:04:01.415Z,19.62
2022-10-05T20:09:21.592Z,19.62
2022-10-05T20:14:31.445Z,18.32
2022-10-05T20:19:54.572Z,17.55
2022-10-05T20:25:28.977Z,16.97
2022-10-05T20:30:34.027Z,16.57
2022-10-05T20:35:37.076Z,16.33
2022-10-05T20:40:49.814Z,16.14
2022-10-05T20:45:54.121Z,15.99
2022-10-05T20:51:10.413Z,16.88
2022-10-05T20:56:13.725Z,19.50
2022-10-05T21:01:19.942Z,19.76
2022-10-05T21:06:26.393Z,18.37
2022-10-05T21:11:29.858Z,17.61
2022-10-05T21:16:34.179Z,17.13
2022-10-05T21:21:37.177Z,16.75
2022-10-05T21:26:41.618Z,16.43
2022-10-05T21:31:44.483Z,16.17
2022-10-05T21:36:47.635Z,15.93
2022-10-05T21:41:50.572Z,15.75
2022-10-05T21:46:55.065Z,15.60
2022-10-05T21:51:59.936Z,15.48
2022-10-05T21:57:03.350Z,16.34
2022-10-05T22:02:06.644Z,19.02
2022-10-05T22:07:18.477Z,19.36
2022-10-05T22:12:21.910Z,18.04
2022-10-05T22:17:28.137Z,17.34
2022-10-05T22:22:31.154Z,16.86
2022-10-05T22:27:35.675Z,16.47
2022-10-05T22:32:38.524Z,16.11
2022-10-05T22:37:41.614Z,15.79
2022-10-05T22:42:44.773Z,15.53
2022-10-05T22:47:48.169Z,15.25
2022-10-05T22:52:52.509Z,14.99
2022-10-05T22:57:55.380Z,15.75
2022-10-05T23:02:58.259Z,18.42
2022-10-05T23:08:02.493Z,18.48
2022-10-05T23:13:05.321Z,17.10
2022-10-05T23:18:08.170Z,16.26
2022-10-05T23:23:11.110Z,15.66
2022-10-05T23:28:14.144Z,15.17
2022-10-05T23:33:17.090Z,14.77
2022-10-05T23:38:20.376Z,14.42
2022-10-05T23:43:23.362Z,14.14
2022-10-05T23:48:27.139Z,15.02
2022-10-05T23:53:35.422Z,17.75
2022-10-05T23:58:38.667Z,18.09
